createdAt,value
2022-09-07T00:01:00.716Z,100877.16
2022-09-07T00:03:27.492Z,100886.16
2022-09-07T00:05:54.080Z,100891.03
2022-09-07T00:08:24.379Z,100878.81
2022-09-07T00:10:52.918Z,100896.75
2022-09-07T00:13:19.349Z,100895.66
2022-09-07T00:15:45.808Z,100893.38
2022-09-07T00:18:12.237Z,100881.53
2022-09-07T00:20:38.628Z,100877.56
2022-09-07T00:23:05.116Z,100889.97
2022-09-07T00:25:32.106Z,100895.69
2022-09-07T00:27:59.292Z,100899.88
2022-09-07T00:30:27.032Z,100908.81
2022-09-07T00:32:53.440Z,100914.03
2022-09-07T00:35:19.857Z,100910.91
2022-09-07T00:37:46.258Z,100915.06
2022-09-07T00:40:12.730Z,100928.16
2022-09-07T00:42:39.181Z,100941.00
2022-09-07T00:45:06.201Z,100960.34
2022-09-07T00:47:39.896Z,100978.63
2022-09-07T00:50:21.944Z,100992.13
2022-09-07T00:52:53.512Z,100994.63
2022-09-07T00:55:20.794Z,101005.97
2022-09-07T00:57:52.158Z,101009.38
2022-09-07T01:00:19.228Z,100994.44
2022-09-07T01:02:49.134Z,100990.81
2022-09-07T01:05:24.965Z,100980.94
2022-09-07T01:07:51.390Z,100969.56
2022-09-07T01:10:18.070Z,100977.56
2022-09-07T01:12:44.493Z,100978.00
2022-09-07T01:15:11.033Z,100981.59
2022-09-07T01:17:43.341Z,100977.56
2022-09-07T01:20:38.501Z,100970.59
2022-09-07T01:23:37.809Z,100966.81
2022-09-07T01:26:38.348Z,100933.75
2022-09-07T01:29:10.799Z,100926.38
2022-09-07T01:32:05.503Z,100922.78
2022-09-07T01:34:32.294Z,100915.94
2022-09-07T01:37:39.534Z,100907.06
2022-09-07T01:40:13.319Z,100908.78
2022-09-07T01:42:54.659Z,100913.63
2022-09-07T01:45:27.201Z,100922.44
2022-09-07T01:47:56.973Z,100914.91
2022-09-07T01:50:41.137Z,100921.84
2022-09-07T01:53:15.490Z,100925.41
2022-09-07T01:55:55.704Z,100915.94
2022-09-07T01:58:29.315Z,100919.72
2022-09-07T02:01:01.835Z,100916.38
2022-09-07T02:03:30.899Z,100919.72
2022-09-07T02:06:20.493Z,100913.41
2022-09-07T02:09:00.928Z,100907.34
2022-09-07T02:11:37.663Z,100894.28
2022-09-07T02:14:17.801Z,100895.13
2022-09-07T02:17:17.089Z,100885.88
2022-09-07T02:19:54.189Z,100894.53
2022-09-07T02:22:27.688Z,100883.97
2022-09-07T02:24:58.284Z,100887.34
2022-09-07T02:27:34.360Z,100877.69
2022-09-07T02:30:00.813Z,100869.66
2022-09-07T02:32:27.354Z,100853.69
2022-09-07T02:34:53.791Z,100850.13
2022-09-07T02:37:20.836Z,100858.75
2022-09-07T02:39:47.903Z,100868.22
2022-09-07T02:42:14.386Z,100864.22
2022-09-07T02:44:42.749Z,100867.97
2022-09-07T02:47:29.872Z,100868.22
2022-09-07T02:50:30.624Z,100877.03
2022-09-07T02:53:22.943Z,100874.72
2022-09-07T02:56:07.359Z,100868.22
2022-09-07T02:58:49.699Z,100865.28
2022-09-07T03:01:51.121Z,100864.88
2022-09-07T03:04:17.531Z,100867.19
2022-09-07T03:06:53.542Z,100868.88
2022-09-07T03:09:24.743Z,100865.28
2022-09-07T03:11:52.061Z,100855.41
2022-09-07T03:14:22.049Z,100852.03
2022-09-07T03:16:51.297Z,100839.19
2022-09-07T03:19:18.039Z,100846.97
2022-09-07T03:21:45.138Z,100852.69
2022-09-07T03:24:11.568Z,100858.16
2022-09-07T03:26:41.799Z,100861.72
2022-09-07T03:29:08.382Z,100876.44
2022-09-07T03:31:35.660Z,100883.38
2022-09-07T03:34:02.638Z,100879.19
2022-09-07T03:36:30.021Z,100874.97
2022-09-07T03:38:58.670Z,100862.97
2022-09-07T03:41:26.213Z,100855.00
2022-09-07T03:43:52.752Z,100843.66
2022-09-07T03:46:19.640Z,100845.53
2022-09-07T03:48:48.075Z,100842.81
2022-09-07T03:51:17.103Z,100851.41
2022-09-07T03:53:46.106Z,100862.97
2022-09-07T03:56:19.719Z,100870.97
2022-09-07T03:58:47.702Z,100871.78
2022-09-07T04:01:20.039Z,100878.53
2022-09-07T04:03:48.054Z,100874.75
2022-09-07T04:06:15.491Z,100867.19
2022-09-07T04:08:43.221Z,100854.78
2022-09-07T04:11:13.227Z,100854.16
2022-09-07T04:13:40.086Z,100863.81
2022-09-07T04:16:23.838Z,100863.84
2022-09-07T04:18:50.903Z,100859.22
2022-09-07T04:21:18.514Z,100860.88
2022-09-07T04:23:45.410Z,100866.75
2022-09-07T04:26:23.297Z,100873.50
2022-09-07T04:28:50.776Z,100876.84
2022-09-07T04:31:19.221Z,100877.06
2022-09-07T04:33:47.193Z,100877.47
2022-09-07T04:36:14.856Z,100867.00
2022-09-07T04:38:41.437Z,100848.88
2022-09-07T04:41:11.757Z,100837.13
2022-09-07T04:43:39.823Z,100847.84
2022-09-07T04:46:08.541Z,100839.25
2022-09-07T04:48:34.971Z,100838.38
2022-09-07T04:51:09.299Z,100834.81
2022-09-07T04:53:37.330Z,100834.56
2022-09-07T04:56:04.875Z,100842.56
2022-09-07T04:58:31.860Z,100835.44
2022-09-07T05:01:03.409Z,100841.75
2022-09-07T05:03:35.821Z,100835.22
2022-09-07T05:06:06.588Z,100840.69
2022-09-07T05:08:41.656Z,100841.69
2022-09-07T05:11:09.796Z,100844.03
2022-09-07T05:13:37.171Z,100842.53
2022-09-07T05:16:12.315Z,100845.72
2022-09-07T05:18:38.881Z,100838.38
2022-09-07T05:21:26.369Z,100837.91
2022-09-07T05:23:55.501Z,100842.34
2022-09-07T05:26:23.975Z,100846.31
2022-09-07T05:28:50.743Z,100840.88
2022-09-07T05:31:19.996Z,100847.16
2022-09-07T05:36:35.970Z,100854.75
2022-09-07T05:39:03.411Z,100865.88
2022-09-07T05:41:29.946Z,100866.97
2022-09-07T05:46:42.801Z,100884.41
2022-09-07T05:49:10.289Z,100882.94
2022-09-07T05:51:37.347Z,100886.13
2022-09-07T05:54:04.374Z,100884.84
2022-09-07T05:56:34.147Z,100887.38
2022-09-07T05:59:00.551Z,100894.72
2022-09-07T06:01:27.011Z,100888.22
2022-09-07T06:03:53.440Z,100887.78
2022-09-07T06:06:19.874Z,100884.41
2022-09-07T06:08:49.294Z,100882.94
2022-09-07T06:11:18.822Z,100894.53
2022-09-07T06:13:45.543Z,100882.72
2022-09-07T06:16:13.848Z,100882.09
2022-09-07T06:18:42.636Z,100882.72
2022-09-07T06:21:20.306Z,100882.53
2022-09-07T06:23:47.922Z,100883.19
2022-09-07T06:26:16.434Z,100880.66
2022-09-07T06:28:48.874Z,100876.22
2022-09-07T06:31:20.606Z,100887.78
2022-09-07T06:33:48.069Z,100888.41
2022-09-07T06:36:16.980Z,100893.69
2022-09-07T06:38:44.268Z,100891.97
2022-09-07T06:44:12.310Z,100904.59
2022-09-07T06:49:25.837Z,100905.44
2022-09-07T06:51:52.468Z,100913.00
2022-09-07T06:57:09.035Z,100914.28
2022-09-07T06:59:36.146Z,100917.88
2022-09-07T07:02:02.770Z,100921.84
2022-09-07T07:04:29.229Z,100926.47
2022-09-07T07:06:55.648Z,100919.31
2022-09-07T07:09:22.072Z,100925.63
2022-09-07T07:11:48.520Z,100921.22
2022-09-07T07:14:15.484Z,100919.53
2022-09-07T07:16:42.352Z,100911.97
2022-09-07T07:19:09.560Z,100912.59
2022-09-07T07:21:55.179Z,100912.59
2022-09-07T07:24:23.010Z,100913.22
2022-09-07T07:26:49.870Z,100906.03
2022-09-07T07:29:18.724Z,100905.09
2022-09-07T07:31:46.899Z,100908.25
2022-09-07T07:34:13.406Z,100899.94
2022-09-07T07:36:40.433Z,100906.41
2022-09-07T07:39:07.003Z,100910.34
2022-09-07T07:44:20.707Z,100918.44
2022-09-07T07:46:49.106Z,100918.84
2022-09-07T07:49:16.050Z,100919.59
2022-09-07T07:54:29.255Z,100932.78
2022-09-07T07:56:55.628Z,100936.81
2022-09-07T07:59:21.975Z,100943.66
2022-09-07T08:01:48.591Z,100939.63
2022-09-07T08:04:15.199Z,100944.44
2022-09-07T08:06:42.580Z,100946.84
2022-09-07T08:09:09.014Z,100960.44
2022-09-07T08:11:35.468Z,100963.22
2022-09-07T08:14:05.914Z,100956.66
2022-09-07T08:16:34.054Z,100964.44
2022-09-07T08:19:01.628Z,100960.09
2022-09-07T08:21:28.247Z,100950.06
2022-09-07T08:23:55.486Z,100956.72
2022-09-07T08:26:21.911Z,100956.56
2022-09-07T08:28:48.699Z,100959.59
2022-09-07T08:31:16.410Z,100965.38
2022-09-07T08:33:43.205Z,100968.06
2022-09-07T08:36:14.710Z,100967.06
2022-09-07T08:38:41.777Z,100974.69
2022-09-07T08:41:46.825Z,100980.22
2022-09-07T08:44:18.184Z,100969.53
2022-09-07T08:47:22.024Z,100967.66
2022-09-07T08:49:52.652Z,100967.66
2022-09-07T08:52:28.451Z,100971.66
2022-09-07T08:55:18.398Z,100969.66
2022-09-07T08:58:04.566Z,100978.81
2022-09-07T09:00:31.465Z,100973.97
2022-09-07T09:06:01.441Z,100978.16
2022-09-07T09:09:12.472Z,100980.19
2022-09-07T09:12:02.922Z,100989.09
2022-09-07T09:14:56.283Z,100969.59
2022-09-07T09:17:31.491Z,100970.59
2022-09-07T09:20:22.926Z,100966.34
2022-09-07T09:23:00.790Z,100971.06
2022-09-07T09:25:33.591Z,100964.75
2022-09-07T09:28:00.367Z,100973.94
2022-09-07T09:30:28.176Z,100973.88
2022-09-07T09:33:14.825Z,100973.66
2022-09-07T09:35:42.472Z,100967.22
2022-09-07T09:38:34.439Z,100963.59
2022-09-07T09:41:14.837Z,100954.19
2022-09-07T09:43:59.635Z,100954.84
2022-09-07T09:46:29.359Z,100959.38
2022-09-07T09:49:05.479Z,100956.75
2022-09-07T09:54:34.484Z,100957.06
2022-09-07T09:57:00.961Z,100953.59
2022-09-07T10:05:39.268Z,100955.81
2022-09-07T10:08:16.781Z,100944.72
2022-09-07T10:10:54.643Z,100949.88
2022-09-07T10:13:23.466Z,100942.78
2022-09-07T10:15:51.540Z,100943.88
2022-09-07T10:18:25.105Z,100942.50
2022-09-07T10:20:51.613Z,100942.22
2022-09-07T10:23:23.820Z,100939.72
2022-09-07T10:25:51.080Z,100943.88
2022-09-07T10:28:24.701Z,100943.25
2022-09-07T10:31:20.447Z,100947.09
2022-09-07T10:37:03.999Z,100945.47
2022-09-07T10:39:41.358Z,100941.63
2022-09-07T10:42:29.492Z,100936.59
2022-09-07T10:44:58.809Z,100935.47
2022-09-07T10:47:27.992Z,100935.53
2022-09-07T10:53:39.424Z,100936.25
2022-09-07T10:56:10.575Z,100927.84
2022-09-07T10:59:08.380Z,100925.69
2022-09-07T11:01:50.366Z,100928.22
2022-09-07T11:04:47.570Z,100917.59
2022-09-07T11:07:30.486Z,100929.31
2022-09-07T11:10:30.737Z,100925.41
2022-09-07T11:13:01.037Z,100921.03
2022-09-07T11:15:32.662Z,100925.25
2022-09-07T11:18:18.580Z,100931.44
2022-09-07T11:20:55.341Z,100934.25
2022-09-07T11:23:28.543Z,100922.91
2022-09-07T11:26:18.895Z,100937.94
2022-09-07T11:32:03.177Z,100936.81
2022-09-07T11:34:35.634Z,100936.47
2022-09-07T11:37:16.738Z,100928.31
2022-09-07T11:39:45.123Z,100923.59
2022-09-07T11:42:43.506Z,100926.38
2022-09-07T11:45:36.620Z,100924.03
2022-09-07T11:48:19.574Z,100914.69
2022-09-07T11:50:53.252Z,100924.69
2022-09-07T11:53:24.180Z,100928.50
2022-09-07T11:55:57.148Z,100922.66
2022-09-07T11:59:00.055Z,100919.41
2022-09-07T12:01:38.115Z,100929.97
2022-09-07T12:04:29.911Z,100927.84
2022-09-07T12:07:21.387Z,100926.47
2022-09-07T12:09:55.499Z,100929.84
2022-09-07T12:12:42.077Z,100916.59
2022-09-07T12:15:32.775Z,100932.09
2022-09-07T12:18:17.939Z,100918.47
2022-09-07T12:20:46.321Z,100925.66
2022-09-07T12:23:15.451Z,100924.78
2022-09-07T12:25:43.998Z,100928.88
2022-09-07T12:28:25.607Z,100916.69
2022-09-07T12:30:58.485Z,100915.56
2022-09-07T12:33:31.477Z,100918.91
2022-09-07T12:36:00.759Z,100921.53
2022-09-07T12:38:30.365Z,100921.72
2022-09-07T12:41:01.788Z,100909.06
2022-09-07T12:43:55.045Z,100913.28
2022-09-07T12:46:34.874Z,100908.53
2022-09-07T12:49:25.919Z,100894.81
2022-09-07T12:52:22.530Z,100888.59
2022-09-07T12:55:26.209Z,100875.19
2022-09-07T12:58:13.721Z,100881.47
2022-09-07T13:00:43.166Z,100879.03
2022-09-07T13:03:58.866Z,100868.78
2022-09-07T13:07:08.649Z,100867.41
2022-09-07T13:09:41.660Z,100876.94
2022-09-07T13:15:40.989Z,100864.09
2022-09-07T13:18:31.442Z,100854.69
2022-09-07T13:21:06.672Z,100851.63
2022-09-07T13:23:34.851Z,100862.16
2022-09-07T13:26:03.394Z,100853.66
2022-09-07T13:28:41.531Z,100854.72
2022-09-07T13:31:07.944Z,100847.38
2022-09-07T13:33:34.472Z,100851.63
2022-09-07T13:36:03.390Z,100838.03
2022-09-07T13:38:31.703Z,100842.91
2022-09-07T13:41:07.558Z,100842.41
2022-09-07T13:43:34.737Z,100824.50
2022-09-07T13:46:04.865Z,100827.09
2022-09-07T13:48:37.238Z,100838.31
2022-09-07T13:51:08.362Z,100835.00
2022-09-07T13:53:47.812Z,100828.72
2022-09-07T13:56:50.415Z,100835.78
2022-09-07T13:59:23.773Z,100837.66
2022-09-07T14:01:50.953Z,100832.59
2022-09-07T14:04:34.142Z,100824.34
2022-09-07T14:07:14.503Z,100831.66
2022-09-07T14:09:41.360Z,100834.16
2022-09-07T14:12:16.118Z,100829.50
2022-09-07T14:14:42.630Z,100828.59
2022-09-07T14:17:18.345Z,100831.00
2022-09-07T14:19:49.149Z,100813.91
2022-09-07T14:22:18.805Z,100832.34
2022-09-07T14:24:55.453Z,100828.47
2022-09-07T14:27:34.814Z,100829.88
2022-09-07T14:30:20.113Z,100831.69
2022-09-07T14:32:47.848Z,100826.59
2022-09-07T14:35:17.708Z,100828.69
2022-09-07T14:37:46.173Z,100829.16
2022-09-07T14:40:17.296Z,100815.59
2022-09-07T14:42:43.791Z,100823.56
2022-09-07T14:45:22.228Z,100820.28
2022-09-07T14:47:52.295Z,100816.72
2022-09-07T14:50:21.851Z,100813.47
2022-09-07T14:55:40.511Z,100819.69
2022-09-07T14:58:10.379Z,100816.13
2022-09-07T15:00:37.055Z,100807.81
2022-09-07T15:03:31.686Z,100816.81
2022-09-07T15:06:02.398Z,100810.63
2022-09-07T15:08:41.111Z,100806.31
2022-09-07T15:14:02.432Z,100812.88
2022-09-07T15:16:34.511Z,100805.91
2022-09-07T15:19:34.037Z,100802.41
2022-09-07T15:22:13.359Z,100791.34
2022-09-07T15:24:39.906Z,100791.94
2022-09-07T15:27:19.376Z,100797.19
2022-09-07T15:29:46.354Z,100794.47
2022-09-07T15:32:12.837Z,100800.09
2022-09-07T15:34:39.191Z,100800.91
2022-09-07T15:38:01.125Z,100792.53
2022-09-07T15:39:53.044Z,100790.63
2022-09-07T15:45:06.958Z,100794.34
2022-09-07T15:47:52.228Z,100792.59
2022-09-07T15:50:19.578Z,100795.41
2022-09-07T15:52:46.389Z,100791.81
2022-09-07T15:55:14.443Z,100797.41
2022-09-07T15:57:50.183Z,100791.72
2022-09-07T16:00:19.584Z,100788.72
2022-09-07T16:03:05.002Z,100789.56
2022-09-07T16:05:31.970Z,100792.28
2022-09-07T16:10:53.524Z,100782.84
2022-09-07T16:13:20.577Z,100787.03
2022-09-07T16:15:47.852Z,100773.28
2022-09-07T16:18:17.235Z,100773.25
2022-09-07T16:20:44.771Z,100772.78
2022-09-07T16:23:14.561Z,100759.47
2022-09-07T16:25:43.294Z,100756.88
2022-09-07T16:28:10.131Z,100762.13
2022-09-07T16:30:40.388Z,100768.31
2022-09-07T16:33:06.977Z,100757.91
2022-09-07T16:35:33.422Z,100756.59
2022-09-07T16:40:46.454Z,100758.06
2022-09-07T16:43:12.878Z,100756.47
2022-09-07T16:48:25.618Z,100755.06
2022-09-07T16:50:58.920Z,100761.16
2022-09-07T16:53:29.553Z,100765.91
2022-09-07T16:56:06.481Z,100759.03
2022-09-07T16:58:36.519Z,100761.59
2022-09-07T17:01:08.623Z,100759.88
2022-09-07T17:03:36.808Z,100766.28
2022-09-07T17:06:05.200Z,100759.72
2022-09-07T17:08:33.159Z,100759.34
2022-09-07T17:11:05.851Z,100762.84
2022-09-07T17:13:33.819Z,100758.06
2022-09-07T17:16:04.911Z,100760.75
2022-09-07T17:21:19.757Z,100764.00
2022-09-07T17:23:54.417Z,100764.28
2022-09-07T17:26:22.563Z,100759.53
2022-09-07T17:28:50.566Z,100762.00
2022-09-07T17:34:11.558Z,100752.41
2022-09-07T17:36:38.078Z,100748.22
2022-09-07T17:39:20.224Z,100747.41
2022-09-07T17:41:48.342Z,100747.72
2022-09-07T17:44:15.197Z,100743.09
2022-09-07T17:46:41.540Z,100750.19
2022-09-07T17:49:12.217Z,100749.91
2022-09-07T17:51:38.868Z,100747.16
2022-09-07T17:54:11.419Z,100739.47
2022-09-07T17:56:39.922Z,100741.53
2022-09-07T18:01:56.504Z,100731.25
2022-09-07T18:04:23.372Z,100737.34
2022-09-07T18:06:50.248Z,100733.16
2022-09-07T18:09:17.315Z,100733.44
2022-09-07T18:11:45.550Z,100734.28
2022-09-07T18:14:14.688Z,100729.25
2022-09-07T18:16:42.752Z,100732.31
2022-09-07T18:19:11.147Z,100726.97
2022-09-07T18:21:38.004Z,100732.84
2022-09-07T18:24:07.790Z,100733.13
2022-09-07T18:26:38.296Z,100734.66
2022-09-07T18:29:13.012Z,100741.00
2022-09-07T18:31:52.179Z,100737.03
2022-09-07T18:34:18.649Z,100732.66
2022-09-07T18:36:45.016Z,100735.28
2022-09-07T18:39:13.136Z,100734.34
2022-09-07T18:41:40.832Z,100740.56
2022-09-07T18:45:27.292Z,100735.66
2022-09-07T18:46:54.450Z,100738.53
2022-09-07T18:49:20.879Z,100737.59
2022-09-07T18:54:33.688Z,100740.81
2022-09-07T18:57:00.108Z,100735.75
2022-09-07T18:59:26.488Z,100732.66
2022-09-07T19:01:54.131Z,100740.88
2022-09-07T19:04:21.175Z,100737.19
2022-09-07T19:06:47.976Z,100738.59
2022-09-07T19:09:14.417Z,100740.16
2022-09-07T19:11:42.169Z,100744.00
2022-09-07T19:14:08.920Z,100739.09
2022-09-07T19:16:36.438Z,100738.25
2022-09-07T19:19:05.569Z,100731.31
2022-09-07T19:21:37.270Z,100740.16
2022-09-07T19:24:10.719Z,100742.06
2022-09-07T19:26:39.664Z,100734.75
2022-09-07T19:29:15.314Z,100750.03
2022-09-07T19:31:44.750Z,100743.06
2022-09-07T19:34:11.496Z,100751.16
2022-09-07T19:36:38.567Z,100747.34
2022-09-07T19:39:05.779Z,100749.66
2022-09-07T19:41:34.094Z,100750.69
2022-09-07T19:44:00.491Z,100745.66
2022-09-07T19:46:26.968Z,100740.00
2022-09-07T19:48:53.478Z,100737.59
2022-09-07T19:51:19.943Z,100735.09
2022-09-07T19:53:47.078Z,100744.63
2022-09-07T19:56:16.327Z,100741.50
2022-09-07T19:58:44.030Z,100733.16
2022-09-07T20:01:11.928Z,100734.00
2022-09-07T20:03:39.061Z,100731.72
2022-09-07T20:06:18.796Z,100725.63
2022-09-07T20:08:45.560Z,100723.59
2022-09-07T20:11:14.093Z,100744.16
2022-09-07T20:13:40.893Z,100726.06
2022-09-07T20:16:09.442Z,100728.63
2022-09-07T20:18:36.140Z,100727.06
2022-09-07T20:21:07.120Z,100720.94
2022-09-07T20:23:35.036Z,100711.69
2022-09-07T20:26:04.503Z,100720.38
2022-09-07T20:28:31.779Z,100718.59
2022-09-07T20:30:58.147Z,100713.72
2022-09-07T20:33:24.690Z,100710.09
2022-09-07T20:35:51.470Z,100712.59
2022-09-07T20:38:20.617Z,100710.94
2022-09-07T20:40:52.143Z,100708.50
2022-09-07T20:43:18.966Z,100702.28
2022-09-07T20:45:45.449Z,100697.25
2022-09-07T20:48:11.937Z,100692.34
2022-09-07T20:50:38.829Z,100692.44
2022-09-07T20:53:05.647Z,100684.50
2022-09-07T20:55:32.432Z,100685.34
2022-09-07T20:57:58.805Z,100690.16
2022-09-07T21:00:25.772Z,100678.63
2022-09-07T21:02:52.744Z,100685.28
2022-09-07T21:05:19.233Z,100684.56
2022-09-07T21:07:45.599Z,100684.19
2022-09-07T21:10:11.968Z,100691.34
2022-09-07T21:12:38.356Z,100683.28
2022-09-07T21:15:05.218Z,100683.72
2022-09-07T21:17:31.670Z,100679.34
2022-09-07T21:19:58.047Z,100673.53
2022-09-07T21:22:24.458Z,100679.22
2022-09-07T21:24:50.798Z,100667.41
2022-09-07T21:27:17.174Z,100674.00
2022-09-07T21:29:43.573Z,100672.47
2022-09-07T21:32:09.956Z,100667.97
2022-09-07T21:34:36.376Z,100673.84
2022-09-07T21:37:02.752Z,100667.91
2022-09-07T21:39:29.309Z,100665.97
2022-09-07T21:41:55.775Z,100669.19
2022-09-07T21:44:22.264Z,100671.72
2022-09-07T21:46:48.717Z,100660.28
2022-09-07T21:49:15.142Z,100674.22
2022-09-07T21:51:41.490Z,100672.03
2022-09-07T21:54:08.395Z,100676.59
2022-09-07T21:56:34.889Z,100663.63
2022-09-07T21:59:02.435Z,100657.28
2022-09-07T22:01:30.587Z,100653.09
2022-09-07T22:04:04.887Z,100662.56
2022-09-07T22:06:32.461Z,100651.53
2022-09-07T22:08:59.655Z,100657.84
2022-09-07T22:11:28.119Z,100649.06
2022-09-07T22:14:00.535Z,100653.28
2022-09-07T22:16:27.355Z,100658.91
2022-09-07T22:18:53.832Z,100664.63
2022-09-07T22:21:24.114Z,100664.78
2022-09-07T22:23:54.247Z,100670.28
2022-09-07T22:26:24.050Z,100668.28
2022-09-07T22:28:51.007Z,100663.34
2022-09-07T22:31:26.093Z,100655.28
2022-09-07T22:33:53.944Z,100662.91
2022-09-07T22:36:26.540Z,100657.69
2022-09-07T22:38:54.360Z,100650.50
2022-09-07T22:41:23.544Z,100645.41
2022-09-07T22:43:50.966Z,100650.44
2022-09-07T22:46:20.339Z,100642.28
2022-09-07T22:48:46.840Z,100638.69
2022-09-07T22:51:13.626Z,100630.47
2022-09-07T22:53:42.710Z,100630.13
2022-09-07T22:56:12.405Z,100623.66
2022-09-07T22:58:39.437Z,100620.66
2022-09-07T23:01:06.630Z,100615.88
2022-09-07T23:03:34.664Z,100613.50
2022-09-07T23:06:01.552Z,100622.78
2022-09-07T23:08:28.174Z,100612.13
2022-09-07T23:10:54.608Z,100608.56
2022-09-07T23:13:21.387Z,100601.91
2022-09-07T23:15:48.178Z,100590.72
2022-09-07T23:18:20.181Z,100599.66
2022-09-07T23:20:46.730Z,100584.63
2022-09-07T23:23:13.667Z,100584.84
2022-09-07T23:25:42.238Z,100582.50
2022-09-07T23:28:12.364Z,100587.38
2022-09-07T23:30:42.005Z,100581.28
2022-09-07T23:33:08.358Z,100576.34
2022-09-07T23:35:34.716Z,100573.84
2022-09-07T23:38:01.951Z,100572.41
2022-09-07T23:40:30.366Z,100573.94
2022-09-07T23:42:56.796Z,100568.97
2022-09-07T23:45:23.335Z,100563.94
2022-09-07T23:47:50.014Z,100563.69
2022-09-07T23:50:16.493Z,100562.19
2022-09-07T23:52:42.946Z,100565.31
2022-09-07T23:55:10.941Z,100566.44
2022-09-07T23:57:38.126Z,100573.09
